Terminal Aerodrome Forecast
Issued by NWS Jackson, MS

Home | Current Version | Previous Version | Text Only | Print | Product List | Glossary On
Versions: 1 2 3 4 5 6 7 8 9 10 11 12 13
000
FTUS44 KJAN 040520
TAFGWO
TAF
KGWO 040520Z 0406/0506 07003KT P6SM SKC
     FM040900 00000KT 4SM BR SKC
     FM041400 06005KT P6SM SCT060=

USA.gov is the U.S. government's official web portal to all federal, state and local government web resources and services.